Freeport, Texas
Current Conditions -  °F | °C
As of 10:53 AM on Saturday 25 Oct 2014 (Local Time) from KLBX Reporting Station
Clear Clear  
Wind Chill: 72°   Ceiling: Unl
Heat Index: 72°   Visibility: 10mi
Dew Point: 58°   Wind: 5mph
Humidity: 61%   Direction: 70°ENE
Pressure: 30.19"   Gusts: NA
Location:  28.95°N, 95.34°W
Report Text: KLBX 251553Z AUTO 07004KT 10SM CLR 22/14 A3019 RMK AO2 SLP224 T02220144
Loading
Personal Weather Stations






























Interactive Weather Map
Tropical Storm Tracking
New forecast layout! Learn more

10-Day Weather Forecast

Advertisements
Track Severe Weather on mobile